Terminal Aerodrome Forecast
Issued by NWS

Home | Current Version | Previous Version | Text Only | Print | Product List | Glossary On
Versions: 1 2 3 4 5 6 7 8 9 10 11 12 13 14 15 16 17 18 19 20
000
FTUS45 KTWC 300529
TAFOLS
TAF
KOLS 300529Z 3006/3106 15005KT P6SM SCT060 BKN090 OVC180
     FM301000 18010KT P6SM BKN100 BKN180
     FM301800 22010KT P6SM SCT070 BKN100
     FM302000 26010KT P6SM BKN060 OVC090=

USA.gov is the U.S. government's official web portal to all federal, state and local government web resources and services.